createdAt,value
2023-02-19T00:00:02.775Z,949.10
2023-02-19T00:00:14.789Z,949.09
2023-02-19T00:00:26.770Z,949.09
2023-02-19T00:00:37.790Z,949.10
2023-02-19T00:00:49.767Z,949.10
2023-02-19T00:01:00.783Z,949.09
2023-02-19T00:01:12.759Z,949.09
2023-02-19T00:01:23.790Z,949.09
2023-02-19T00:01:35.775Z,949.07
2023-02-19T00:01:46.816Z,949.06
2023-02-19T00:01:58.831Z,949.06
2023-02-19T00:02:10.801Z,949.07
2023-02-19T00:02:22.784Z,949.07
2023-02-19T00:02:33.792Z,949.06
2023-02-19T00:02:45.782Z,949.06
2023-02-19T00:02:57.771Z,949.05
2023-02-19T00:03:08.812Z,949.03
2023-02-19T00:03:20.834Z,949.02
2023-02-19T00:03:31.810Z,949.02
2023-02-19T00:03:42.779Z,949.01
2023-02-19T00:03:53.815Z,949.01
2023-02-19T00:04:05.810Z,948.99
2023-02-19T00:04:17.785Z,948.97
2023-02-19T00:04:28.793Z,948.99
2023-02-19T00:04:40.835Z,948.97
2023-02-19T00:04:51.801Z,948.95
2023-02-19T00:05:02.820Z,948.99
2023-02-19T00:05:13.884Z,948.98
2023-02-19T00:05:25.785Z,948.96
2023-02-19T00:05:37.756Z,948.95
2023-02-19T00:05:48.766Z,948.94
2023-02-19T00:05:59.778Z,948.94
2023-02-19T00:06:10.795Z,948.94
2023-02-19T00:06:22.780Z,948.95
2023-02-19T00:06:34.767Z,948.95
2023-02-19T00:06:46.766Z,948.94
2023-02-19T00:06:57.776Z,948.92
2023-02-19T00:07:09.764Z,948.93
2023-02-19T00:07:20.815Z,948.94
2023-02-19T00:07:32.794Z,948.93
2023-02-19T00:07:44.798Z,948.93
2023-02-19T00:07:56.784Z,948.92
2023-02-19T00:08:08.769Z,948.92
2023-02-19T00:08:19.799Z,948.92
2023-02-19T00:08:31.780Z,948.93
2023-02-19T00:08:42.789Z,948.90
2023-02-19T00:08:54.760Z,948.89
2023-02-19T00:09:05.772Z,948.90
2023-02-19T00:09:17.764Z,948.90
2023-02-19T00:09:28.782Z,948.91
2023-02-19T00:09:39.797Z,948.91
2023-02-19T00:09:51.771Z,948.91
2023-02-19T00:10:02.792Z,948.91
2023-02-19T00:10:14.773Z,948.90
2023-02-19T00:10:25.788Z,948.90
2023-02-19T00:10:37.801Z,948.88
2023-02-19T00:10:49.766Z,948.86
2023-02-19T00:11:00.796Z,948.86
2023-02-19T00:11:12.773Z,948.87
2023-02-19T00:11:23.778Z,948.86
2023-02-19T00:11:35.768Z,948.86
2023-02-19T00:11:47.993Z,948.87
2023-02-19T00:11:58.770Z,948.85
2023-02-19T00:12:09.786Z,948.84
2023-02-19T00:12:21.778Z,948.84
2023-02-19T00:12:33.760Z,948.84
2023-02-19T00:12:44.762Z,948.82
2023-02-19T00:12:55.788Z,948.80
2023-02-19T00:13:07.755Z,948.80
2023-02-19T00:13:18.765Z,948.81
2023-02-19T00:13:29.771Z,948.80
2023-02-19T00:13:41.756Z,948.80
2023-02-19T00:13:52.783Z,948.79
2023-02-19T00:14:03.794Z,948.78
2023-02-19T00:14:15.797Z,948.78
2023-02-19T00:14:27.780Z,948.78
2023-02-19T00:14:39.758Z,948.78
2023-02-19T00:14:50.777Z,948.77
2023-02-19T00:15:02.805Z,948.76
2023-02-19T00:15:14.795Z,948.76
2023-02-19T00:15:26.819Z,948.76
2023-02-19T00:15:38.932Z,948.77
2023-02-19T00:15:49.828Z,948.77
2023-02-19T00:16:00.772Z,948.77
2023-02-19T00:16:12.764Z,948.77
2023-02-19T00:16:23.778Z,948.77
2023-02-19T00:16:35.780Z,948.77
2023-02-19T00:16:46.788Z,948.77
2023-02-19T00:16:58.763Z,948.78
2023-02-19T00:17:09.763Z,948.78
2023-02-19T00:17:20.784Z,948.79
2023-02-19T00:17:32.805Z,948.80
2023-02-19T00:17:44.804Z,948.79
2023-02-19T00:17:56.788Z,948.77
2023-02-19T00:18:07.798Z,948.77
2023-02-19T00:18:19.766Z,948.73
2023-02-19T00:18:30.771Z,948.72
2023-02-19T00:18:41.778Z,948.70
2023-02-19T00:18:53.765Z,948.71
2023-02-19T00:19:04.769Z,948.71
2023-02-19T00:19:15.795Z,948.71
2023-02-19T00:19:27.780Z,948.70
2023-02-19T00:19:38.786Z,948.70
2023-02-19T00:19:50.778Z,948.69
2023-02-19T00:20:01.810Z,948.69
2023-02-19T00:20:13.792Z,948.68
2023-02-19T00:20:25.768Z,948.66
2023-02-19T00:20:36.794Z,948.66
2023-02-19T00:20:48.787Z,948.66
2023-02-19T00:20:59.803Z,948.64
2023-02-19T00:21:12.013Z,948.62
2023-02-19T00:21:22.752Z,948.60
2023-02-19T00:21:33.767Z,948.57
2023-02-19T00:21:44.788Z,948.55
2023-02-19T00:21:56.759Z,948.53
2023-02-19T00:22:07.785Z,948.53
2023-02-19T00:22:19.775Z,948.52
2023-02-19T00:22:30.786Z,948.51
2023-02-19T00:22:42.776Z,948.50
2023-02-19T00:22:54.759Z,948.50
2023-02-19T00:23:05.776Z,948.50
2023-02-19T00:23:16.782Z,948.50
2023-02-19T00:23:28.758Z,948.51
2023-02-19T00:23:39.772Z,948.51
2023-02-19T00:23:50.791Z,948.51
2023-02-19T00:24:02.799Z,948.51
2023-02-19T00:24:14.787Z,948.50
2023-02-19T00:24:26.770Z,948.50
2023-02-19T00:24:37.785Z,948.50
2023-02-19T00:24:49.772Z,948.50
2023-02-19T00:25:00.785Z,948.51
2023-02-19T00:25:11.793Z,948.52
2023-02-19T00:25:23.782Z,948.51
2023-02-19T00:25:35.766Z,948.51
2023-02-19T00:25:47.774Z,948.51
2023-02-19T00:26:08.915Z,948.52
2023-02-19T00:26:18.097Z,948.53
2023-02-19T00:26:22.786Z,948.53
2023-02-19T00:26:32.773Z,948.53
2023-02-19T00:26:44.775Z,948.53
2023-02-19T00:26:55.733Z,948.53
2023-02-19T00:27:06.740Z,948.53
2023-02-19T00:27:17.757Z,948.53
2023-02-19T00:27:28.776Z,948.53
2023-02-19T00:27:40.767Z,948.54
2023-02-19T00:27:51.777Z,948.54
2023-02-19T00:28:02.789Z,948.54
2023-02-19T00:28:14.771Z,948.54
2023-02-19T00:28:25.774Z,948.53
2023-02-19T00:28:37.759Z,948.52
2023-02-19T00:28:48.774Z,948.51
2023-02-19T00:29:00.776Z,948.50
2023-02-19T00:29:11.790Z,948.51
2023-02-19T00:29:23.771Z,948.51
2023-02-19T00:29:34.794Z,948.51
2023-02-19T00:29:46.773Z,948.51
2023-02-19T00:29:58.865Z,948.51
2023-02-19T00:30:09.843Z,948.52
2023-02-19T00:30:20.883Z,948.53
2023-02-19T00:30:32.841Z,948.53
2023-02-19T00:30:43.817Z,948.53
2023-02-19T00:30:54.827Z,948.52
2023-02-19T00:31:05.838Z,948.52
2023-02-19T00:31:16.815Z,948.52
2023-02-19T00:31:27.894Z,948.52
2023-02-19T00:31:38.922Z,948.52
2023-02-19T00:31:49.959Z,948.52
2023-02-19T00:32:01.857Z,948.52
2023-02-19T00:32:13.857Z,948.52
2023-02-19T00:32:25.728Z,948.52
2023-02-19T00:32:36.741Z,948.51
2023-02-19T00:32:47.769Z,948.51
2023-02-19T00:32:58.792Z,948.51
2023-02-19T00:33:10.764Z,948.50
2023-02-19T00:33:21.772Z,948.50
2023-02-19T00:33:32.791Z,948.50
2023-02-19T00:33:44.770Z,948.50
2023-02-19T00:33:55.792Z,948.50
2023-02-19T00:34:07.771Z,948.51
2023-02-19T00:34:18.777Z,948.51
2023-02-19T00:34:30.786Z,948.50
2023-02-19T00:34:41.806Z,948.50
2023-02-19T00:34:53.788Z,948.50
2023-02-19T00:35:05.772Z,948.50
2023-02-19T00:35:16.793Z,948.50
2023-02-19T00:35:28.770Z,948.49
2023-02-19T00:35:39.781Z,948.49
2023-02-19T00:35:51.758Z,948.48
2023-02-19T00:36:02.788Z,948.48
2023-02-19T00:36:14.774Z,948.49
2023-02-19T00:36:25.783Z,948.50
2023-02-19T00:36:36.799Z,948.51
2023-02-19T00:36:48.774Z,948.51
2023-02-19T00:36:59.786Z,948.51
2023-02-19T00:37:11.762Z,948.51
2023-02-19T00:37:22.777Z,948.51
2023-02-19T00:37:33.787Z,948.51
2023-02-19T00:37:45.781Z,948.51
2023-02-19T00:37:57.761Z,948.51
2023-02-19T00:38:08.775Z,948.52
2023-02-19T00:38:19.795Z,948.51
2023-02-19T00:38:31.768Z,948.50
2023-02-19T00:38:42.781Z,948.48
2023-02-19T00:38:53.788Z,948.48
2023-02-19T00:39:05.777Z,948.48
2023-02-19T00:39:17.772Z,948.49
2023-02-19T00:39:29.771Z,948.49
2023-02-19T00:39:41.770Z,948.49
2023-02-19T00:39:52.791Z,948.49
2023-02-19T00:40:04.781Z,948.49
2023-02-19T00:40:16.770Z,948.48
2023-02-19T00:40:28.771Z,948.48
2023-02-19T00:40:39.786Z,948.48
2023-02-19T00:40:51.768Z,948.49
2023-02-19T00:41:02.780Z,948.49
2023-02-19T00:41:14.769Z,948.49
2023-02-19T00:41:25.789Z,948.49
2023-02-19T00:41:37.771Z,948.48
2023-02-19T00:41:48.782Z,948.47
2023-02-19T00:41:59.805Z,948.46
2023-02-19T00:42:11.793Z,948.47
2023-02-19T00:42:23.773Z,948.47
2023-02-19T00:42:34.783Z,948.47
2023-02-19T00:42:45.798Z,948.47
2023-02-19T00:42:57.793Z,948.47
2023-02-19T00:43:09.777Z,948.46
2023-02-19T00:43:21.763Z,948.45
2023-02-19T00:43:32.800Z,948.44
2023-02-19T00:43:44.796Z,948.44
2023-02-19T00:43:56.770Z,948.44
2023-02-19T00:44:07.793Z,948.44
2023-02-19T00:44:19.785Z,948.43
2023-02-19T00:44:30.803Z,948.41
2023-02-19T00:44:42.783Z,948.40
2023-02-19T00:44:54.779Z,948.40
2023-02-19T00:45:06.779Z,948.40
2023-02-19T00:45:18.772Z,948.41
2023-02-19T00:45:29.846Z,948.40
2023-02-19T00:45:41.833Z,948.40
2023-02-19T00:45:53.813Z,948.40
2023-02-19T00:46:05.830Z,948.39
2023-02-19T00:46:16.788Z,948.39
2023-02-19T00:46:27.838Z,948.38
2023-02-19T00:46:38.866Z,948.38
2023-02-19T00:46:50.782Z,948.38
2023-02-19T00:47:01.800Z,948.37
2023-02-19T00:47:13.785Z,948.37
2023-02-19T00:47:24.798Z,948.37
2023-02-19T00:47:35.784Z,948.37
2023-02-19T00:47:46.794Z,948.36
2023-02-19T00:47:58.781Z,948.35
2023-02-19T00:48:10.795Z,948.34
2023-02-19T00:48:21.807Z,948.33
2023-02-19T00:48:33.785Z,948.32
2023-02-19T00:48:45.788Z,948.30
2023-02-19T00:48:56.800Z,948.28
2023-02-19T00:49:08.788Z,948.27
2023-02-19T00:49:20.780Z,948.27
2023-02-19T00:49:32.780Z,948.26
2023-02-19T00:49:43.788Z,948.26
2023-02-19T00:49:55.782Z,948.26
2023-02-19T00:50:07.798Z,948.25
2023-02-19T00:50:19.788Z,948.26
2023-02-19T00:50:31.778Z,948.26
2023-02-19T00:50:42.793Z,948.25
2023-02-19T00:50:54.771Z,948.26
2023-02-19T00:51:05.779Z,948.25
2023-02-19T00:51:17.776Z,948.24
2023-02-19T00:51:29.783Z,948.23
2023-02-19T00:51:41.763Z,948.23
2023-02-19T00:51:52.818Z,948.23
2023-02-19T00:52:03.847Z,948.23
2023-02-19T00:52:15.826Z,948.22
2023-02-19T00:52:27.813Z,948.22
2023-02-19T00:52:39.800Z,948.22
2023-02-19T00:52:51.810Z,948.22
2023-02-19T00:53:03.782Z,948.22
2023-02-19T00:53:15.797Z,948.23
2023-02-19T00:53:27.790Z,948.23
2023-02-19T00:53:39.788Z,948.23
2023-02-19T00:53:51.793Z,948.23
2023-02-19T00:54:03.773Z,948.23
2023-02-19T00:54:14.794Z,948.23
2023-02-19T00:54:26.800Z,948.24
2023-02-19T00:54:38.789Z,948.24
2023-02-19T00:54:49.805Z,948.24
2023-02-19T00:55:01.791Z,948.24
2023-02-19T00:55:12.818Z,948.23
2023-02-19T00:55:24.804Z,948.24
2023-02-19T00:55:36.789Z,948.24
2023-02-19T00:55:47.817Z,948.23
2023-02-19T00:55:59.802Z,948.24
2023-02-19T00:56:11.824Z,948.24
2023-02-19T00:56:23.793Z,948.25
2023-02-19T00:56:34.808Z,948.25
2023-02-19T00:56:46.790Z,948.25
2023-02-19T00:56:57.755Z,948.24
2023-02-19T00:57:08.758Z,948.24
2023-02-19T00:57:19.767Z,948.24
2023-02-19T00:57:31.784Z,948.23
2023-02-19T00:57:42.802Z,948.23
2023-02-19T00:57:54.784Z,948.23
2023-02-19T00:58:06.770Z,948.21
2023-02-19T00:58:17.781Z,948.20
2023-02-19T00:58:28.799Z,948.19
2023-02-19T00:58:40.786Z,948.19
2023-02-19T00:58:51.805Z,948.19
2023-02-19T00:59:03.801Z,948.19
2023-02-19T00:59:14.817Z,948.19
2023-02-19T00:59:26.807Z,948.17
2023-02-19T00:59:38.788Z,948.16
2023-02-19T00:59:50.793Z,948.15
2023-02-19T01:00:02.780Z,948.16
2023-02-19T01:00:13.799Z,948.16
2023-02-19T01:00:25.777Z,948.15
2023-02-19T01:00:36.794Z,948.14
2023-02-19T01:00:48.785Z,948.13
2023-02-19T01:01:00.779Z,948.13
2023-02-19T01:01:12.766Z,948.12
2023-02-19T01:01:23.890Z,948.12
2023-02-19T01:01:34.773Z,948.12
2023-02-19T01:01:45.923Z,948.12
2023-02-19T01:01:57.825Z,948.11
2023-02-19T01:02:09.831Z,948.11
2023-02-19T01:02:21.807Z,948.11
2023-02-19T01:02:33.793Z,948.11
2023-02-19T01:02:45.768Z,948.09
2023-02-19T01:02:56.791Z,948.09
2023-02-19T01:03:07.816Z,948.07
2023-02-19T01:03:19.802Z,948.07
2023-02-19T01:03:31.780Z,948.06
2023-02-19T01:03:42.794Z,948.06
2023-02-19T01:03:54.785Z,948.07
2023-02-19T01:04:07.014Z,948.07
2023-02-19T01:04:17.791Z,948.07
2023-02-19T01:04:29.789Z,948.07
2023-02-19T01:04:41.857Z,948.07
2023-02-19T01:04:53.895Z,948.05
2023-02-19T01:05:05.788Z,948.06
2023-02-19T01:05:16.801Z,948.07
2023-02-19T01:05:28.795Z,948.07
2023-02-19T01:05:40.801Z,948.08
2023-02-19T01:05:52.790Z,948.08
2023-02-19T01:06:04.798Z,948.07
2023-02-19T01:06:16.795Z,948.06
2023-02-19T01:06:28.784Z,948.05
2023-02-19T01:06:40.773Z,948.04
2023-02-19T01:06:52.780Z,948.04
2023-02-19T01:07:03.745Z,948.04
2023-02-19T01:07:14.756Z,948.04
2023-02-19T01:07:25.781Z,948.05
2023-02-19T01:07:36.798Z,948.05
2023-02-19T01:07:48.781Z,948.05
2023-02-19T01:07:59.801Z,948.06
2023-02-19T01:08:11.790Z,948.05
2023-02-19T01:08:23.782Z,948.05
2023-02-19T01:08:34.805Z,948.05
2023-02-19T01:08:45.808Z,948.05
2023-02-19T01:08:57.790Z,948.04
2023-02-19T01:09:09.793Z,948.05
2023-02-19T01:09:21.776Z,948.05
2023-02-19T01:09:32.793Z,948.05
2023-02-19T01:09:43.804Z,948.06
2023-02-19T01:09:55.797Z,948.07
2023-02-19T01:10:07.785Z,948.08
2023-02-19T01:10:19.772Z,948.10
2023-02-19T01:10:30.793Z,948.11
2023-02-19T01:10:42.788Z,948.08
2023-02-19T01:10:54.773Z,948.06
2023-02-19T01:11:05.776Z,948.05
2023-02-19T01:11:17.766Z,948.03
2023-02-19T01:11:28.782Z,948.04
2023-02-19T01:11:40.768Z,948.05
2023-02-19T01:11:51.791Z,948.04
2023-02-19T01:12:03.768Z,948.02
2023-02-19T01:12:14.775Z,948.02
2023-02-19T01:12:25.821Z,948.02
2023-02-19T01:12:36.784Z,948.01
2023-02-19T01:12:48.771Z,948.00
2023-02-19T01:12:59.783Z,947.98
2023-02-19T01:13:10.804Z,947.98
2023-02-19T01:13:22.797Z,947.97
2023-02-19T01:13:34.796Z,947.96
2023-02-19T01:13:46.767Z,947.96
2023-02-19T01:13:58.809Z,947.96
2023-02-19T01:14:09.794Z,947.94
2023-02-19T01:14:21.791Z,947.94
2023-02-19T01:14:33.769Z,947.92
2023-02-19T01:14:45.356Z,947.92
2023-02-19T01:14:55.799Z,947.92
2023-02-19T01:15:07.817Z,947.91
2023-02-19T01:15:19.798Z,947.91
2023-02-19T01:15:30.821Z,947.92
2023-02-19T01:15:42.817Z,947.93
2023-02-19T01:15:54.805Z,947.93
2023-02-19T01:16:05.898Z,947.92
2023-02-19T01:16:16.811Z,947.91
2023-02-19T01:16:28.846Z,947.91
2023-02-19T01:16:39.792Z,947.91
2023-02-19T01:16:50.817Z,947.91
2023-02-19T01:17:02.795Z,947.91
2023-02-19T01:17:14.766Z,947.91
2023-02-19T01:17:25.793Z,947.91
2023-02-19T01:17:37.776Z,947.92
2023-02-19T01:17:48.794Z,947.91
2023-02-19T01:18:00.771Z,947.91
2023-02-19T01:18:11.789Z,947.90
2023-02-19T01:18:22.815Z,947.90
2023-02-19T01:18:34.799Z,947.90
2023-02-19T01:18:46.785Z,947.91
2023-02-19T01:18:57.805Z,947.92
2023-02-19T01:19:09.790Z,947.92
2023-02-19T01:19:21.763Z,947.91
2023-02-19T01:19:32.770Z,947.90
2023-02-19T01:19:43.786Z,947.89
2023-02-19T01:19:55.768Z,947.86
2023-02-19T01:20:06.781Z,947.84
2023-02-19T01:20:18.794Z,947.85
2023-02-19T01:20:29.802Z,947.85
2023-02-19T01:20:41.779Z,947.85
2023-02-19T01:20:52.797Z,947.84
2023-02-19T01:21:04.779Z,947.84
2023-02-19T01:21:15.818Z,947.84
2023-02-19T01:21:27.797Z,947.84
2023-02-19T01:21:39.758Z,947.85
2023-02-19T01:21:51.778Z,947.85
2023-02-19T01:22:02.797Z,947.85
2023-02-19T01:22:14.822Z,947.86
2023-02-19T01:22:26.807Z,947.87
2023-02-19T01:22:38.807Z,947.88
2023-02-19T01:22:50.788Z,947.87
2023-02-19T01:23:01.796Z,947.86
2023-02-19T01:23:13.795Z,947.86
2023-02-19T01:23:25.781Z,947.86
2023-02-19T01:23:37.781Z,947.87
2023-02-19T01:23:48.791Z,947.88
2023-02-19T01:24:00.789Z,947.87
2023-02-19T01:24:12.768Z,947.86
2023-02-19T01:24:23.780Z,947.86
2023-02-19T01:24:34.799Z,947.86
2023-02-19T01:24:46.806Z,947.86
2023-02-19T01:24:58.786Z,947.87
2023-02-19T01:25:10.785Z,947.89
2023-02-19T01:25:21.800Z,947.92
2023-02-19T01:25:33.787Z,947.93
2023-02-19T01:25:44.811Z,947.93
2023-02-19T01:25:56.818Z,947.94
2023-02-19T01:26:08.790Z,947.94
2023-02-19T01:26:20.780Z,947.95
2023-02-19T01:26:32.773Z,947.96
2023-02-19T01:26:44.757Z,947.98
2023-02-19T01:26:55.771Z,947.98
2023-02-19T01:27:06.793Z,947.98
2023-02-19T01:27:17.809Z,947.98
2023-02-19T01:27:29.802Z,947.98
2023-02-19T01:27:41.788Z,947.97
2023-02-19T01:27:53.778Z,947.98
2023-02-19T01:28:04.808Z,947.98
2023-02-19T01:28:16.787Z,947.99
2023-02-19T01:28:28.774Z,947.96
2023-02-19T01:28:39.790Z,947.93
2023-02-19T01:28:51.771Z,947.92
2023-02-19T01:29:02.810Z,947.94
2023-02-19T01:29:14.793Z,947.94
2023-02-19T01:29:26.785Z,947.92
2023-02-19T01:29:37.752Z,947.89
2023-02-19T01:29:48.762Z,947.89
2023-02-19T01:29:59.795Z,947.89
2023-02-19T01:30:11.827Z,947.87
2023-02-19T01:30:22.822Z,947.84
2023-02-19T01:30:33.835Z,947.84
2023-02-19T01:30:44.745Z,947.86
2023-02-19T01:30:55.782Z,947.87
2023-02-19T01:31:08.074Z,947.89
2023-02-19T01:31:19.847Z,947.92
2023-02-19T01:31:31.838Z,947.92
2023-02-19T01:31:42.783Z,947.90
2023-02-19T01:31:53.829Z,947.89
2023-02-19T01:32:04.943Z,947.89
2023-02-19T01:32:16.792Z,947.89
2023-02-19T01:32:28.798Z,947.87
2023-02-19T01:32:40.780Z,947.83
2023-02-19T01:32:52.769Z,947.82
2023-02-19T01:33:03.782Z,947.83
2023-02-19T01:33:14.790Z,947.83
2023-02-19T01:33:26.779Z,947.82
2023-02-19T01:33:37.793Z,947.81
2023-02-19T01:33:49.781Z,947.79
2023-02-19T01:34:01.779Z,947.79
2023-02-19T01:34:13.762Z,947.80
2023-02-19T01:34:24.776Z,947.80
2023-02-19T01:34:35.780Z,947.80
2023-02-19T01:34:47.766Z,947.80
2023-02-19T01:34:58.778Z,947.81
2023-02-19T01:35:10.765Z,947.81
2023-02-19T01:35:21.801Z,947.81
2023-02-19T01:35:33.792Z,947.81
2023-02-19T01:35:45.812Z,947.80
2023-02-19T01:35:57.786Z,947.78
2023-02-19T01:36:09.761Z,947.75
2023-02-19T01:36:20.772Z,947.75
2023-02-19T01:36:31.786Z,947.77
2023-02-19T01:36:42.804Z,947.78
2023-02-19T01:36:54.803Z,947.77
2023-02-19T01:37:06.817Z,947.77
2023-02-19T01:37:18.789Z,947.78
2023-02-19T01:37:30.762Z,947.79
2023-02-19T01:37:41.784Z,947.77
2023-02-19T01:37:53.767Z,947.75
2023-02-19T01:38:05.786Z,947.76
2023-02-19T01:38:17.766Z,947.77
2023-02-19T01:38:28.787Z,947.77
2023-02-19T01:38:40.775Z,947.78
2023-02-19T01:38:52.780Z,947.74
2023-02-19T01:39:03.825Z,947.72
2023-02-19T01:39:15.821Z,947.70
2023-02-19T01:39:27.808Z,947.68
2023-02-19T01:39:39.793Z,947.67
2023-02-19T01:39:51.779Z,947.67
2023-02-19T01:40:03.817Z,947.69
2023-02-19T01:40:14.749Z,947.71
2023-02-19T01:40:25.775Z,947.70
2023-02-19T01:40:36.788Z,947.68
2023-02-19T01:40:48.765Z,947.69
2023-02-19T01:40:59.790Z,947.70
2023-02-19T01:41:12.124Z,947.71
2023-02-19T01:41:22.799Z,947.69
2023-02-19T01:41:34.774Z,947.68
2023-02-19T01:41:46.785Z,947.70
2023-02-19T01:41:58.773Z,947.71
2023-02-19T01:42:09.788Z,947.68
2023-02-19T01:42:20.794Z,947.67
2023-02-19T01:42:32.772Z,947.70
2023-02-19T01:42:43.780Z,947.74
2023-02-19T01:42:55.759Z,947.69
2023-02-19T01:43:06.774Z,947.64
2023-02-19T01:43:17.780Z,947.61
2023-02-19T01:43:29.778Z,947.61
2023-02-19T01:43:41.756Z,947.63
2023-02-19T01:43:52.774Z,947.66
2023-02-19T01:44:03.788Z,947.68
2023-02-19T01:44:15.777Z,947.68
2023-02-19T01:44:26.781Z,947.68
2023-02-19T01:44:38.767Z,947.67
2023-02-19T01:44:49.788Z,947.68
2023-02-19T01:45:01.773Z,947.68
2023-02-19T01:45:12.790Z,947.67
2023-02-19T01:45:24.774Z,947.69
2023-02-19T01:45:35.784Z,947.70
2023-02-19T01:45:47.757Z,947.73
2023-02-19T01:45:58.777Z,947.73
2023-02-19T01:46:10.916Z,947.74
2023-02-19T01:46:21.887Z,947.74
2023-02-19T01:46:32.891Z,947.74
2023-02-19T01:46:43.751Z,947.76
2023-02-19T01:46:54.814Z,947.75
2023-02-19T01:47:05.760Z,947.75
2023-02-19T01:47:16.782Z,947.76
2023-02-19T01:47:28.774Z,947.77
2023-02-19T01:47:39.796Z,947.76
2023-02-19T01:47:51.801Z,947.75
2023-02-19T01:48:03.783Z,947.71
2023-02-19T01:48:15.782Z,947.71
2023-02-19T01:48:27.784Z,947.72
2023-02-19T01:48:39.778Z,947.74
2023-02-19T01:48:50.791Z,947.74
2023-02-19T01:49:02.771Z,947.74
2023-02-19T01:49:14.794Z,947.73
2023-02-19T01:49:25.742Z,947.69
2023-02-19T01:49:36.772Z,947.67
2023-02-19T01:49:48.777Z,947.65
2023-02-19T01:49:59.783Z,947.64
2023-02-19T01:50:11.768Z,947.62
2023-02-19T01:50:22.790Z,947.61
2023-02-19T01:50:34.782Z,947.62
2023-02-19T01:50:46.771Z,947.65
2023-02-19T01:50:57.782Z,947.67
2023-02-19T01:51:09.995Z,947.66
2023-02-19T01:51:20.823Z,947.62
2023-02-19T01:51:32.800Z,947.62
2023-02-19T01:51:44.782Z,947.64
2023-02-19T01:51:56.777Z,947.66
2023-02-19T01:52:08.793Z,947.68
2023-02-19T01:52:20.777Z,947.64
2023-02-19T01:52:32.758Z,947.60
2023-02-19T01:52:43.782Z,947.63
2023-02-19T01:52:55.774Z,947.58
2023-02-19T01:53:06.784Z,947.56
2023-02-19T01:53:18.775Z,947.56
2023-02-19T01:53:29.814Z,947.56
2023-02-19T01:53:41.813Z,947.56
2023-02-19T01:53:53.809Z,947.56
2023-02-19T01:54:05.816Z,947.54
2023-02-19T01:54:17.790Z,947.54
2023-02-19T01:54:29.777Z,947.53
2023-02-19T01:54:40.794Z,947.52
2023-02-19T01:54:52.801Z,947.50
2023-02-19T01:55:04.781Z,947.51
2023-02-19T01:55:16.767Z,947.53
2023-02-19T01:55:27.784Z,947.52
2023-02-19T01:55:39.785Z,947.52
2023-02-19T01:55:51.776Z,947.51
2023-02-19T01:56:02.797Z,947.49
2023-02-19T01:56:14.779Z,947.48
2023-02-19T01:56:25.790Z,947.51
2023-02-19T01:56:37.782Z,947.48
2023-02-19T01:56:49.766Z,947.45
2023-02-19T01:57:01.804Z,947.45
2023-02-19T01:57:13.772Z,947.45
2023-02-19T01:57:25.766Z,947.46
2023-02-19T01:57:36.807Z,947.46
2023-02-19T01:57:48.788Z,947.47
2023-02-19T01:58:00.773Z,947.47
2023-02-19T01:58:11.794Z,947.47
2023-02-19T01:58:23.765Z,947.47
2023-02-19T01:58:34.784Z,947.48
2023-02-19T01:58:46.771Z,947.48
2023-02-19T01:58:58.760Z,947.48
2023-02-19T01:59:09.770Z,947.48
2023-02-19T01:59:20.785Z,947.47
2023-02-19T01:59:32.758Z,947.47
2023-02-19T01:59:43.795Z,947.48
2023-02-19T01:59:55.768Z,947.46
2023-02-19T02:00:06.779Z,947.44
2023-02-19T02:00:18.754Z,947.43
2023-02-19T02:00:29.818Z,947.42
2023-02-19T02:00:40.760Z,947.42
2023-02-19T02:00:51.850Z,947.42
2023-02-19T02:01:03.778Z,947.42
2023-02-19T02:01:15.839Z,947.42
2023-02-19T02:01:26.785Z,947.42
2023-02-19T02:01:38.835Z,947.42
2023-02-19T02:01:49.817Z,947.41
2023-02-19T02:02:00.809Z,947.41
2023-02-19T02:02:12.835Z,947.41
2023-02-19T02:02:23.768Z,947.40
2023-02-19T02:02:34.779Z,947.39
2023-02-19T02:02:46.756Z,947.39
2023-02-19T02:02:57.770Z,947.37
2023-02-19T02:03:08.772Z,947.37
2023-02-19T02:03:19.800Z,947.36
2023-02-19T02:03:31.773Z,947.35
2023-02-19T02:03:42.782Z,947.34
2023-02-19T02:03:54.758Z,947.33
2023-02-19T02:04:05.764Z,947.32
2023-02-19T02:04:16.772Z,947.31
2023-02-19T02:04:27.780Z,947.31
2023-02-19T02:04:39.779Z,947.30
2023-02-19T02:04:51.762Z,947.29
2023-02-19T02:05:02.783Z,947.28
2023-02-19T02:05:14.760Z,947.27
2023-02-19T02:05:26.777Z,947.28
2023-02-19T02:05:37.797Z,947.29
2023-02-19T02:05:49.802Z,947.28
2023-02-19T02:06:01.772Z,947.28
2023-02-19T02:06:12.785Z,947.29
2023-02-19T02:06:24.804Z,947.29
2023-02-19T02:06:36.801Z,947.29
2023-02-19T02:06:48.792Z,947.28
2023-02-19T02:07:00.770Z,947.26
2023-02-19T02:07:11.788Z,947.25
2023-02-19T02:07:23.758Z,947.24
2023-02-19T02:07:34.775Z,947.25
2023-02-19T02:07:46.771Z,947.25
2023-02-19T02:07:58.765Z,947.25
2023-02-19T02:08:10.765Z,947.24
2023-02-19T02:08:21.779Z,947.24
2023-02-19T02:08:33.767Z,947.25
2023-02-19T02:08:44.786Z,947.25
2023-02-19T02:08:56.816Z,947.24
2023-02-19T02:09:08.796Z,947.24
2023-02-19T02:09:20.780Z,947.24
2023-02-19T02:09:31.793Z,947.24
2023-02-19T02:09:43.804Z,947.24
2023-02-19T02:09:55.778Z,947.24
2023-02-19T02:10:06.789Z,947.25
2023-02-19T02:10:18.773Z,947.25
2023-02-19T02:10:29.798Z,947.25
2023-02-19T02:10:41.776Z,947.25
2023-02-19T02:10:53.773Z,947.24
2023-02-19T02:11:04.799Z,947.25
2023-02-19T02:11:15.801Z,947.25
2023-02-19T02:11:27.800Z,947.26
2023-02-19T02:11:39.797Z,947.27
2023-02-19T02:11:51.789Z,947.27
2023-02-19T02:12:03.782Z,947.25
2023-02-19T02:12:15.766Z,947.25
2023-02-19T02:12:26.778Z,947.25
2023-02-19T02:12:38.774Z,947.25
2023-02-19T02:12:50.765Z,947.26
2023-02-19T02:13:02.769Z,947.26
2023-02-19T02:13:13.787Z,947.25
2023-02-19T02:13:25.794Z,947.25
2023-02-19T02:13:37.776Z,947.26
2023-02-19T02:13:49.788Z,947.26
2023-02-19T02:14:01.789Z,947.26
2023-02-19T02:14:13.772Z,947.26
2023-02-19T02:14:24.773Z,947.25
2023-02-19T02:14:35.789Z,947.24
2023-02-19T02:14:47.773Z,947.24
2023-02-19T02:14:59.763Z,947.23
2023-02-19T02:15:10.788Z,947.23
2023-02-19T02:15:21.801Z,947.23
2023-02-19T02:15:33.776Z,947.23
2023-02-19T02:15:44.792Z,947.22
2023-02-19T02:15:56.812Z,947.23
2023-02-19T02:16:07.778Z,947.22
2023-02-19T02:16:18.941Z,947.22
2023-02-19T02:16:29.810Z,947.22
2023-02-19T02:16:40.742Z,947.23
2023-02-19T02:16:51.766Z,947.23
2023-02-19T02:17:02.793Z,947.21
2023-02-19T02:17:13.754Z,947.18
2023-02-19T02:17:24.784Z,947.20
2023-02-19T02:17:35.797Z,947.23
2023-02-19T02:17:47.777Z,947.25
2023-02-19T02:17:58.801Z,947.26
2023-02-19T02:18:10.786Z,947.25
2023-02-19T02:18:21.794Z,947.25
2023-02-19T02:18:33.777Z,947.25
2023-02-19T02:18:45.800Z,947.27
2023-02-19T02:18:57.809Z,947.29
2023-02-19T02:19:09.781Z,947.27
2023-02-19T02:19:20.788Z,947.26
2023-02-19T02:19:32.812Z,947.25
2023-02-19T02:19:44.936Z,947.24
2023-02-19T02:19:56.814Z,947.24
2023-02-19T02:20:08.796Z,947.23
2023-02-19T02:20:20.764Z,947.22
2023-02-19T02:20:31.780Z,947.21
2023-02-19T02:20:42.787Z,947.20
2023-02-19T02:20:54.768Z,947.18
2023-02-19T02:21:05.786Z,947.17
2023-02-19T02:21:17.784Z,947.16
2023-02-19T02:21:29.764Z,947.16
2023-02-19T02:21:40.772Z,947.16
2023-02-19T02:21:51.786Z,947.16
2023-02-19T02:22:03.776Z,947.15
2023-02-19T02:22:15.771Z,947.14
2023-02-19T02:22:26.784Z,947.13
2023-02-19T02:22:37.792Z,947.12
2023-02-19T02:22:49.789Z,947.10
2023-02-19T02:23:00.802Z,947.09
2023-02-19T02:23:12.759Z,947.08
2023-02-19T02:23:23.793Z,947.07
2023-02-19T02:23:35.773Z,947.06
2023-02-19T02:23:47.767Z,947.05
2023-02-19T02:23:58.777Z,947.04
2023-02-19T02:24:10.777Z,947.03